Latest Weather Observations for Mackay Airport

IDQ60801

Issued at 5:02 pm EST Thursday 18 December 2014 (issued every 30 minutes, with the page automatically refreshed every 10 minutes)

About weather observations | Map of weather stations | Latest weather observations for QLD | Other Formats
Station Details ID: 033045 Name: MACKAY AERO Lat: -21.17 Lon: 149.18 Height: 4.7 m
Data from the previous 72 hours. | See also: Recent months at Mackay Airport
Date/Time
EST
Temp
°C
App
Temp
°C
Dew
Point
Rel
Hum
%
Delta-T
°C
Wind Press
QNH
hPa
Press
MSL
hPa
Rain
since 9 am
mm
Dir
 
Spd
km/h
Gust
km/h
Spd
kts
Gust
kts
18/05:00pm 30.0 29.1 22.2 63 5.3 N 30 41 16 22 1008.6 1008.6 0.0
18/04:30pm 29.9 28.4 21.8 62 5.5 NNE 32 39 17 21 1008.1 1008.1 0.0
18/04:00pm 30.3 29.0 21.4 59 6.0 NNE 30 39 16 21 1008.3 1008.3 0.0
18/03:30pm 30.8 29.5 22.1 59 5.9 NNE 32 41 17 22 1008.4 1008.4 0.0
18/03:00pm 31.4 30.5 22.1 57 6.3 N 30 37 16 20 1008.9 1008.9 0.0
18/02:30pm 31.7 30.6 21.8 55 6.7 N 30 39 16 21 1009.3 1009.3 0.0
18/02:00pm 31.8 31.5 22.5 58 6.4 NNE 28 35 15 19 1009.7 1009.7 0.0
18/01:30pm 31.7 30.4 22.1 56 6.5 NNE 32 41 17 22 1009.9 1009.9 0.0
18/01:00pm 31.8 30.6 21.6 54 6.9 N 30 43 16 23 1010.1 1010.1 0.0
18/12:30pm 31.6 29.9 20.5 51 7.4 N 30 41 16 22 1010.5 1010.5 0.0
18/12:00pm 32.5 31.3 20.1 48 8.2 N 26 37 14 20 1010.8 1010.8 0.0
18/11:30am 32.5 31.9 20.4 49 8.1 NNW 24 33 13 18 1011.3 1011.3 0.0
18/11:00am 32.3 30.1 18.8 44 8.8 N 28 37 15 20 1011.6 1011.6 0.0
18/10:30am 31.8 31.2 20.4 51 7.6 NNW 24 33 13 18 1011.7 1011.7 0.0
18/10:00am 31.1 29.1 19.1 48 7.8 NNW 28 39 15 21 1012.1 1012.1 0.0
18/09:30am 31.5 30.5 20.4 51 7.4 NNW 26 33 14 18 1012.2 1012.2 0.0
18/09:00am 30.3 30.0 21.1 58 6.1 NNW 24 33 13 18 1012.4 1012.4 0.0
18/08:30am 29.8 29.4 21.7 61 5.5 NNW 26 33 14 18 1012.2 1012.2 0.0
18/08:00am 28.6 29.3 21.6 66 4.7 NNW 20 28 11 15 1012.2 1012.2 0.0
18/07:30am 28.4 31.7 22.6 71 3.9 NNW 9 15 5 8 1012.1 1012.1 0.0
18/07:00am 26.8 30.0 22.4 77 3.0 NW 9 11 5 6 1011.7 1011.7 0.0
18/06:30am 25.6 28.8 22.3 82 2.2 WNW 9 15 5 8 1011.4 1011.4 0.0
18/06:00am 23.7 27.2 21.8 89 1.3 NW 6 7 3 4 1011.1 1011.1 0.0
18/05:30am 22.7 27.0 21.2 91 1.0 CALM 0 0 0 0 1010.4 1010.4 0.0
18/05:00am 23.2 27.6 21.3 89 1.2 CALM 0 0 0 0 1010.0 1010.0 0.0
18/04:30am 22.9 27.3 21.4 91 1.0 CALM 0 0 0 0 1009.6 1009.6 0.0
18/04:00am 23.0 25.7 21.3 90 1.1 NW 9 9 5 5 1009.4 1009.4 0.0
18/03:30am 22.9 25.3 20.8 88 1.4 NW 9 11 5 6 1009.1 1009.1 0.0
18/03:00am 23.9 27.3 22.0 89 1.3 NW 7 11 4 6 1009.1 1009.1 0.0
18/02:30am 23.2 25.7 21.1 88 1.4 NW 9 13 5 7 1009.0 1009.0 0.0
18/02:00am 24.0 26.9 21.7 87 1.5 WNW 9 9 5 5 1009.1 1009.1 0.0
18/01:30am 23.8 26.7 21.1 85 1.8 NW 7 11 4 6 1009.1 1009.1 0.0
18/01:00am 23.6 25.9 20.7 84 1.9 WNW 9 11 5 6 1009.2 1009.2 0.0
18/12:30am 24.9 27.7 21.6 82 2.2 WNW 9 11 5 6 1009.4 1009.4 0.0
18/12:00am 25.5 26.8 21.6 79 2.6 NW 17 22 9 12 1009.2 1009.2 0.0
 
Date/Time
EST
Temp
°C
App
Temp
°C
Dew
Point
Rel
Hum
%
Delta-T
°C
Wind Press
QNH
hPa
Press
MSL
hPa
Rain
since 9 am
mm
Dir
 
Spd
km/h
Gust
km/h
Spd
kts
Gust
kts
17/11:30pm 25.2 26.8 21.5 80 2.5 NNW 15 17 8 9 1009.3 1009.3 0.0
17/11:00pm 25.4 26.7 20.9 76 3.0 NW 15 19 8 10 1009.6 1009.6 0.0
17/10:30pm 25.7 27.6 22.0 80 2.5 NNW 15 17 8 9 1009.5 1009.5 0.0
17/10:00pm 26.1 28.7 22.6 81 2.4 NNW 13 15 7 8 1009.5 1009.5 0.0
17/09:30pm 26.8 28.5 22.4 77 3.0 NNW 17 20 9 11 1009.2 1009.2 0.0
17/09:00pm 26.6 28.5 22.0 76 3.1 NNW 15 20 8 11 1009.1 1009.1 0.0
17/08:30pm 27.2 28.5 21.7 72 3.7 NNW 17 22 9 12 1008.8 1008.8 0.0
17/08:00pm 26.8 28.3 20.6 69 4.1 NNW 13 15 7 8 1008.7 1008.7 0.0
17/07:30pm 27.6 28.4 20.7 66 4.6 N 17 20 9 11 1008.3 1008.3 0.0
17/07:00pm 28.5 28.9 21.0 64 5.0 N 20 26 11 14 1008.1 1008.1 0.0
17/06:30pm 28.7 29.4 21.5 65 4.8 N 20 28 11 15 1007.8 1007.8 0.0
17/06:00pm 29.8 30.9 22.0 63 5.3 N 19 24 10 13 1007.7 1007.7 0.0
17/05:30pm 30.4 30.6 22.0 60 5.7 N 24 28 13 15 1007.1 1007.1 0.0
17/05:00pm 31.4 31.8 21.8 56 6.5 N 22 32 12 17 1006.6 1006.6 0.0
17/04:30pm 32.0 31.4 20.6 51 7.6 N 24 32 13 17 1006.6 1006.6 0.0
17/04:00pm 32.7 33.2 20.9 49 7.9 N 19 24 10 13 1006.7 1006.7 0.0
17/03:30pm 33.0 32.1 19.1 43 9.1 N 22 32 12 17 1006.6 1006.6 0.0
17/03:00pm 33.8 33.4 20.2 44 9.1 N 22 30 12 16 1006.7 1006.7 0.0
17/02:30pm 33.6 32.8 19.3 43 9.4 N 22 28 12 15 1007.2 1007.2 0.0
17/02:00pm 33.3 33.4 21.1 48 8.2 N 22 32 12 17 1007.5 1007.5 0.0
17/01:30pm 33.6 33.5 21.4 48 8.3 N 24 33 13 18 1007.6 1007.6 0.0
17/01:00pm 33.1 32.3 20.9 48 8.2 NNW 26 33 14 18 1007.6 1007.6 0.0
17/12:30pm 33.8 32.5 19.1 42 9.7 NNW 24 33 13 18 1007.8 1007.8 0.0
17/12:00pm 33.1 32.4 20.3 47 8.5 NNW 24 33 13 18 1008.0 1008.0 0.0
17/11:30am 32.8 32.1 19.6 45 8.7 NNW 22 30 12 16 1008.4 1008.4 0.0
17/11:00am 33.1 31.3 18.8 42 9.3 N 26 33 14 18 1009.0 1009.0 0.0
17/10:30am 32.8 31.6 19.3 45 8.9 NNW 24 35 13 19 1009.2 1009.2 0.0
17/10:00am 32.1 31.0 18.7 45 8.7 NNW 22 30 12 16 1009.8 1009.8 0.0
17/09:30am 31.8 30.1 18.0 43 8.9 NW 24 32 13 17 1009.6 1009.6 0.0
17/09:00am 31.3 29.7 19.3 49 7.9 NNW 26 35 14 19 1009.6 1009.6 0.0
17/08:30am 29.9 30.9 21.8 62 5.5 NNW 19 26 10 14 1009.6 1009.6 0.0
17/08:00am 28.7 29.4 21.5 65 4.8 NW 20 26 11 14 1009.8 1009.8 0.0
17/07:30am 28.0 29.1 23.1 74 3.3 NNW 22 28 12 15 1009.6 1009.6 0.0
17/07:00am 26.5 29.8 23.2 82 2.2 WNW 11 17 6 9 1009.6 1009.6 0.0
17/06:30am 25.2 29.0 22.7 86 1.7 WNW 7 9 4 5 1009.4 1009.4 0.0
17/06:00am 23.1 27.4 21.9 93 0.8 WSW 2 9 1 5 1009.2 1009.2 0.0
17/05:30am 21.5 25.1 19.8 90 1.1 CALM 0 0 0 0 1008.5 1008.5 0.0
17/05:00am 21.6 25.4 20.1 91 1.0 CALM 0 0 0 0 1008.1 1008.1 0.0
17/04:30am 21.6 23.6 19.9 90 1.1 WSW 9 9 5 5 1007.8 1007.8 0.0
17/04:00am 23.5 25.7 21.9 91 1.1 WNW 13 15 7 8 1007.4 1007.4 0.0
17/03:30am 23.5 26.4 21.8 90 1.1 WNW 9 11 5 6 1007.3 1007.3 0.0
17/03:00am 23.7 26.1 21.6 88 1.4 NW 11 17 6 9 1007.3 1007.3 0.0
17/02:30am 24.1 26.4 22.0 88 1.4 NW 13 15 7 8 1007.3 1007.3 0.0
17/02:00am 24.4 26.7 22.1 87 1.5 NW 13 17 7 9 1007.6 1007.6 0.0
17/01:30am 24.3 26.5 21.8 86 1.7 NW 13 17 7 9 1007.9 1007.9 0.0
17/01:00am 23.5 25.7 21.2 87 1.5 NW 11 13 6 7 1008.2 1008.2 0.0
17/12:30am 24.2 27.0 21.5 85 1.8 NW 9 13 5 7 1008.5 1008.5 0.0
17/12:00am 24.2 26.5 21.3 84 1.9 NW 11 15 6 8 1008.7 1008.7 0.0
 
Date/Time
EST
Temp
°C
App
Temp
°C
Dew
Point
Rel
Hum
%
Delta-T
°C
Wind Press
QNH
hPa
Press
MSL
hPa
Rain
since 9 am
mm
Dir
 
Spd
km/h
Gust
km/h
Spd
kts
Gust
kts
16/11:30pm 24.7 26.6 21.4 82 2.2 NW 13 17 7 9 1009.1 1009.1 0.0
16/11:00pm 24.7 26.3 20.8 79 2.6 WNW 13 15 7 8 1009.5 1009.5 0.0
16/10:30pm 25.6 27.2 21.5 78 2.7 WNW 15 20 8 11 1009.5 1009.5 0.0
16/10:00pm 25.7 28.1 22.2 81 2.3 NNW 13 17 7 9 1009.5 1009.5 0.0
16/09:30pm 26.1 28.6 22.4 80 2.5 NNW 13 19 7 10 1009.3 1009.3 0.0
16/09:00pm 26.2 29.3 22.9 82 2.2 NNW 11 15 6 8 1009.1 1009.1 0.0
16/08:30pm 26.3 29.1 23.0 82 2.2 NNW 13 15 7 8 1009.0 1009.0 0.0
16/08:00pm 26.8 28.7 22.8 79 2.7 N 17 22 9 12 1008.9 1008.9 0.0
16/07:30pm 27.0 28.5 23.0 79 2.7 N 20 30 11 16 1008.7 1008.7 0.0
16/07:00pm 27.2 28.4 23.2 79 2.7 N 22 32 12 17 1008.4 1008.4 0.0
16/06:30pm 27.6 28.8 23.2 77 3.0 N 22 32 12 17 1008.1 1008.1 0.0
16/06:00pm 28.3 28.3 23.0 73 3.6 N 28 35 15 19 1007.6 1007.6 0.0
16/05:30pm 29.3 30.2 23.3 70 4.1 N 24 32 13 17 1007.3 1007.3 0.0
16/05:00pm 29.6 29.4 22.8 67 4.6 N 28 37 15 20 1007.0 1007.0 0.0
16/04:30pm 30.5 29.7 22.4 62 5.5 N 30 37 16 20 1006.9 1006.9 0.0
16/04:00pm 31.3 30.7 22.0 57 6.3 N 28 35 15 19 1006.9 1006.9 0.0
16/03:30pm 31.6 30.7 21.4 54 6.9 N 28 33 15 18 1007.3 1007.3 0.0
16/03:00pm 31.7 30.5 20.9 52 7.2 N 28 35 15 19 1007.4 1007.4 0.0
16/02:30pm 32.8 30.9 18.6 43 9.2 NNE 26 32 14 17 1007.8 1007.8 0.0
16/02:00pm 33.9 33.5 18.8 41 9.9 NNE 19 26 10 14 1008.2 1008.2 0.0
16/01:30pm 34.2 32.2 15.6 32 11.6 N 20 26 11 14 1008.4 1008.4 0.0
16/01:00pm 34.5 32.9 15.9 33 11.7 NNE 19 24 10 13 1008.7 1008.7 0.0
16/12:30pm 33.9 32.0 16.7 35 10.9 N 22 30 12 16 1009.1 1009.1 0.0
16/12:00pm 33.2 32.0 17.4 39 10.1 N 20 28 11 15 1009.4 1009.4 0.0
16/11:30am 33.2 33.2 19.7 45 8.9 N 19 24 10 13 1010.0 1010.0 0.0
16/11:00am 32.7 32.3 18.8 43 9.1 N 19 26 10 14 1010.3 1010.3 0.0
16/10:30am 32.7 33.3 17.7 40 9.6 N 11 17 6 9 1010.6 1010.6 0.0
16/10:00am 31.1 31.2 17.4 44 8.7 N 13 17 7 9 1011.1 1011.1 0.0
16/09:30am 30.7 31.9 19.1 50 7.5 NW 11 17 6 9 1011.1 1011.1 0.0
16/09:00am 30.0 32.2 21.1 59 5.9 WNW 11 17 6 9 1011.3 1011.3 0.0
16/08:30am 28.5 31.1 22.0 68 4.4 WNW 11 17 6 9 1011.4 1011.4 0.0
16/08:00am 26.9 28.8 21.4 72 3.7 W 13 17 7 9 1011.5 1011.5 0.0
16/07:30am 25.9 28.3 21.6 77 2.9 W 11 15 6 8 1011.4 1011.4 0.0
16/07:00am 24.2 26.8 20.5 80 2.4 WSW 7 11 4 6 1011.3 1011.3 0.0
16/06:30am 22.8 24.9 20.1 85 1.7 WSW 9 13 5 7 1011.0 1011.0 0.0
16/06:00am 22.1 23.3 20.0 88 1.3 W 13 15 7 8 1010.7 1010.7 0.0
16/05:30am 21.4 23.0 20.0 92 0.9 W 11 17 6 9 1010.2 1010.2 0.0
16/05:00am 21.0 22.9 19.8 93 0.8 W 9 11 5 6 1009.6 1009.6 0.0
16/04:30am 21.1 23.2 20.1 94 0.6 WNW 9 11 5 6 1009.4 1009.4 0.0
16/04:00am 20.9 22.7 19.6 92 0.8 WNW 9 13 5 7 1009.3 1009.3 0.0
16/03:30am 21.5 24.1 20.1 92 0.9 N 6 7 3 4 1009.2 1009.2 0.0
16/03:00am 21.3 23.2 19.8 91 1.0 N 9 11 5 6 1009.3 1009.3 0.0
16/02:30am 21.2 23.4 19.7 91 1.0 N 7 11 4 6 1009.3 1009.3 0.0
16/02:00am 21.9 24.4 20.2 90 1.1 N 7 9 4 5 1009.6 1009.6 0.0
16/01:30am 22.1 25.6 20.4 90 1.1 N 2 9 1 5 1009.9 1009.9 0.0
16/01:00am 22.4 26.4 20.5 89 1.2 CALM 0 0 0 0 1010.4 1010.4 0.0
16/12:30am 22.5 25.6 20.2 87 1.5 N 4 6 2 3 1010.7 1010.7 0.0
16/12:00am 23.1 25.8 20.2 84 1.9 N 6 7 3 4 1011.3 1011.3 0.0
 
Date/Time
EST
Temp
°C
App
Temp
°C
Dew
Point
Rel
Hum
%
Delta-T
°C
Wind Press
QNH
hPa
Press
MSL
hPa
Rain
since 9 am
mm
Dir
 
Spd
km/h
Gust
km/h
Spd
kts
Gust
kts
15/11:30pm 23.9 26.7 20.8 83 2.0 N 7 7 4 4 1011.7 1011.7 0.0
15/11:00pm 24.3 27.4 21.0 82 2.2 N 6 7 3 4 1011.8 1011.8 0.0
15/10:30pm 24.5 27.3 20.8 80 2.4 N 7 7 4 4 1011.9 1011.9 0.0
15/10:00pm 24.6 28.7 20.7 79 2.6 CALM 0 0 0 0 1011.9 1011.9 0.0
15/09:30pm 25.2 28.3 21.1 78 2.7 N 6 6 3 3 1011.7 1011.7 0.0
15/09:00pm 25.3 28.4 21.0 77 2.8 N 6 7 3 4 1011.4 1011.4 0.0
15/08:30pm 25.4 28.3 21.1 77 2.8 N 7 11 4 6 1010.9 1010.9 0.0
15/08:00pm 25.6 28.1 21.1 76 3.0 NNW 9 13 5 7 1010.7 1010.7 0.0
15/07:30pm 26.1 28.2 20.9 73 3.4 N 11 15 6 8 1010.4 1010.4 0.0
15/07:00pm 26.8 28.5 20.9 70 3.9 NNE 13 17 7 9 1010.0 1010.0 0.0
15/06:30pm 27.4 28.5 20.5 66 4.5 NE 15 19 8 10 1009.7 1009.7 0.0
15/06:00pm 28.0 28.4 20.6 64 4.9 NE 19 22 10 12 1009.3 1009.3 0.0
15/05:30pm 28.2 28.3 20.0 61 5.4 NE 19 24 10 13 1009.0 1009.0 0.0

Other Formats:

Comma delimited format used in spreadsheet applications
http://www.bom.gov.au/fwo/IDQ60801/IDQ60801.95367.axf

JavaScript Object Notation format (JSON) in row-major order
http://www.bom.gov.au/fwo/IDQ60801/IDQ60801.95367.json